15:04
Airports
History
Links
Donate
Help keep this website running!
PayPal
Bitcoin
This page is community maintained. The information is intended for PC simulator navigation or reference.
Always use approved charts for navigation.
SDZY
Regional da Zona da Mata
Regional da Zona da Mata (SDZY)
Juiz de Fora, Minas Gerais, Brazil (36152)
(U)
Lat/Lng:21° 30' 47" S / 43° 10' 23" W
-21.513056 / -43.173056
Elevation:1348'ft / 411mMSL
ID / ICAO:SDZY
Runways:1
Longest:08-26
Asphalt 2,559m / 8,395ft
Nearby Weather01:00 GMT 2017-08-08
Nearby weather at SBJF, FRANCISCO DE ASSIS located 23.6 nautical miles from SDZY
Altimeter: 30.18
Visibility: 6.2 statute miles
Wind: 3 knots (from 360°)
Temp: 15°c / 59°f
Humidity: 87.8%

METAR: SBJF 080100Z 36003KT CAVOK 15/13 Q1022

(Powered by phpweather)
Runway 08 / 26
Dimensions:2558.9 x 45.1m 8395' x 148'ft
Surface:Asphalt
Edge Lights:Medium intensity
Runway 08 [A]Runway 26 [B]
Heading:055°TH 235°TH
Lat:
Lng:
21° 31' 10.23"S
43° 10' 59.77"W
21° 30' 23.77"S
43° 9' 46.23"W
User Notes and Comments
21° 30' 47" S / 43° 10' 23" W
Distance To
Airport ID:
Nearby Airports
(U) Regional da Zona da Mata 0.0 NM
SBZM N
4 Sao Joao Nepomuceno 10.0 NM
SNNE E 101°
4 Faz do Rochedo 23.0 NM
SNJL S 182°
(C) FRANCISCO DE ASSIS 23.6 NM
SBJF ( WX ) SW 215°
(C) Leopoldina 28.9 NM
SNDN E 83°
(C) Uba 32.9 NM
SNUB NE 34°
(C) MAJOR BRIGADEIRO DOORGAL BORGES 41.5 NM
SBBQ ( WX ) WNW 294°
VFR Chart
Flight Planning at SkyVector.com